Time,TemperatureF,DewpointF,PressureIn,WindDirection,WindDirectionDegrees,WindSpeedMPH,WindSpeedGustMPH,Humidity,HourlyPrecipIn,Conditions,Clouds,dailyrainin,SoftwareType,DateUTC
2013-09-04 00:00:00,74.4,70.0,29.96,SSE,159,0.0,0.0,86,0.00,,,0.04,weatherlink.com 1.10,2013-09-04 05:00:00,
2013-09-04 00:15:00,74.4,70.0,29.95,SSE,159,0.0,0.0,86,0.00,,,0.00,weatherlink.com 1.10,2013-09-04 05:15:00,
2013-09-04 00:30:00,74.5,70.0,29.95,SSE,159,0.0,0.0,86,0.00,,,0.00,weatherlink.com 1.10,2013-09-04 05:30:00,
2013-09-04 00:45:00,74.4,70.0,29.94,SSE,159,0.0,0.0,86,0.00,,,0.00,weatherlink.com 1.10,2013-09-04 05:45:00,
2013-09-04 01:00:00,74.2,70.0,29.95,SSE,159,0.0,0.0,86,0.00,,,0.00,weatherlink.com 1.10,2013-09-04 06:00:00,
2013-09-04 01:15:00,74.4,70.0,29.94,SSE,159,0.0,0.0,86,0.00,,,0.00,weatherlink.com 1.10,2013-09-04 06:15:00,
2013-09-04 01:30:00,73.9,70.0,29.95,SSE,159,0.0,0.0,86,0.00,,,0.00,weatherlink.com 1.10,2013-09-04 06:30:00,
2013-09-04 01:45:00,73.8,69.0,29.94,SSE,159,0.0,0.0,86,0.00,,,0.00,weatherlink.com 1.10,2013-09-04 06:45:00,
2013-09-04 02:00:00,73.8,69.0,29.94,SSE,159,0.0,0.0,86,0.00,,,0.00,weatherlink.com 1.10,2013-09-04 07:00:00,
2013-09-04 02:15:00,73.7,69.0,29.94,SSE,159,0.0,0.0,86,0.00,,,0.00,weatherlink.com 1.10,2013-09-04 07:15:00,
2013-09-04 02:30:00,73.9,70.0,29.95,SSE,159,0.0,0.0,86,0.00,,,0.00,weatherlink.com 1.10,2013-09-04 07:30:00,
2013-09-04 02:45:00,73.7,69.0,29.95,SSE,159,0.0,0.0,86,0.00,,,0.00,weatherlink.com 1.10,2013-09-04 07:45:00,
2013-09-04 03:00:00,73.5,69.0,29.95,SSE,159,0.0,0.0,86,0.00,,,0.00,weatherlink.com 1.10,2013-09-04 08:00:00,
2013-09-04 03:15:00,73.2,69.0,29.94,SSE,159,0.0,0.0,86,0.00,,,0.00,weatherlink.com 1.10,2013-09-04 08:15:00,
2013-09-04 03:30:00,73.1,68.0,29.95,SSE,159,0.0,0.0,85,0.00,,,0.00,weatherlink.com 1.10,2013-09-04 08:30:00,
2013-09-04 03:45:00,73.1,68.0,29.96,SSE,159,0.0,0.0,85,0.00,,,0.00,weatherlink.com 1.10,2013-09-04 08:45:00,
2013-09-04 04:00:00,73.2,68.0,29.96,SE,130,0.0,0.0,84,0.00,,,0.00,weatherlink.com 1.10,2013-09-04 09:00:00,
2013-09-04 04:15:00,72.9,68.0,29.96,SE,130,0.0,0.0,84,0.00,,,0.00,weatherlink.com 1.10,2013-09-04 09:15:00,
2013-09-04 04:30:00,73.0,68.0,29.96,SE,130,0.0,0.0,84,0.00,,,0.00,weatherlink.com 1.10,2013-09-04 09:30:00,
2013-09-04 04:45:00,72.9,68.0,29.96,SE,130,0.0,0.0,84,0.00,,,0.00,weatherlink.com 1.10,2013-09-04 09:45:00,
2013-09-04 05:00:00,72.9,68.0,29.96,SE,130,0.0,0.0,84,0.00,,,0.00,weatherlink.com 1.10,2013-09-04 10:00:00,
2013-09-04 05:15:00,72.8,68.0,29.97,SE,130,0.0,0.0,84,0.00,,,0.00,weatherlink.com 1.10,2013-09-04 10:15:00,
2013-09-04 05:30:00,72.6,68.0,29.97,SE,130,0.0,0.0,84,0.00,,,0.00,weatherlink.com 1.10,2013-09-04 10:30:00,
2013-09-04 05:45:00,72.6,68.0,29.98,SE,130,0.0,0.0,84,0.00,,,0.00,weatherlink.com 1.10,2013-09-04 10:45:00,
2013-09-04 06:00:00,72.4,67.0,29.98,SE,130,0.0,0.0,84,0.00,,,0.00,weatherlink.com 1.10,2013-09-04 11:00:00,
2013-09-04 06:15:00,72.2,67.0,29.98,SE,130,0.0,0.0,83,0.00,,,0.00,weatherlink.com 1.10,2013-09-04 11:15:00,
2013-09-04 06:30:00,72.0,67.0,29.99,SE,130,0.0,0.0,83,0.00,,,0.00,weatherlink.com 1.10,2013-09-04 11:30:00,
2013-09-04 06:45:00,71.9,67.0,29.99,NE,49,0.0,0.0,83,0.00,,,0.00,weatherlink.com 1.10,2013-09-04 11:45:00,
2013-09-04 07:00:00,71.7,66.0,30.00,NE,49,0.0,0.0,83,0.00,,,0.00,weatherlink.com 1.10,2013-09-04 12:00:00,
2013-09-04 07:15:00,71.6,66.0,30.00,ESE,119,0.0,0.0,83,0.00,,,0.00,weatherlink.com 1.10,2013-09-04 12:15:00,
2013-09-04 07:30:00,71.7,66.0,30.00,ESE,119,0.0,0.0,82,0.00,,,0.00,weatherlink.com 1.10,2013-09-04 12:30:00,
2013-09-04 07:45:00,71.9,66.0,30.01,ESE,119,0.0,0.0,82,0.00,,,0.00,weatherlink.com 1.10,2013-09-04 12:45:00,
2013-09-04 08:00:00,72.3,67.0,30.02,ESE,119,0.0,0.0,82,0.00,,,0.00,weatherlink.com 1.10,2013-09-04 13:00:00,
2013-09-04 08:15:00,72.9,67.0,30.03,ESE,119,0.0,0.0,81,0.00,,,0.00,weatherlink.com 1.10,2013-09-04 13:15:00,
2013-09-04 08:30:00,73.9,67.0,30.03,ESE,119,0.0,0.0,80,0.00,,,0.00,weatherlink.com 1.10,2013-09-04 13:30:00,
2013-09-04 08:45:00,75.9,69.0,30.03,ESE,120,0.0,0.0,79,0.00,,,0.00,weatherlink.com 1.10,2013-09-04 13:45:00,
2013-09-04 09:01:00,77.6,71.0,30.03,ESE,120,0.0,0.0,80,0.00,,,0.00,weatherlink.com 1.10,2013-09-04 14:01:00,
2013-09-04 09:16:00,79.4,74.0,30.04,ESE,116,0.0,0.0,84,0.00,,,0.00,weatherlink.com 1.10,2013-09-04 14:16:00,
2013-09-04 09:31:00,82.0,76.0,30.04,East,91,0.0,3.0,83,0.00,,,0.00,weatherlink.com 1.10,2013-09-04 14:31:00,
2013-09-04 09:46:00,83.6,76.0,30.04,NW,311,0.0,5.0,78,0.00,,,0.00,weatherlink.com 1.10,2013-09-04 14:46:00,
2013-09-04 10:01:00,85.4,77.0,30.04,NW,314,0.0,4.0,75,0.00,,,0.00,weatherlink.com 1.10,2013-09-04 15:01:00,
2013-09-04 10:16:00,87.7,78.0,30.04,SW,217,0.0,2.0,72,0.00,,,0.00,weatherlink.com 1.10,2013-09-04 15:16:00,
2013-09-04 10:31:00,88.2,77.0,30.04,SW,216,0.0,1.0,69,0.00,,,0.00,weatherlink.com 1.10,2013-09-04 15:31:00,
2013-09-04 10:46:00,89.2,77.0,30.04,SW,217,0.0,3.0,67,0.00,,,0.00,weatherlink.com 1.10,2013-09-04 15:46:00,
2013-09-04 11:01:00,88.6,76.0,30.05,SW,215,0.0,1.0,67,0.00,,,0.00,weatherlink.com 1.10,2013-09-04 16:01:00,
2013-09-04 11:16:00,88.1,75.0,30.05,SW,217,0.0,1.0,66,0.00,,,0.00,weatherlink.com 1.10,2013-09-04 16:16:00,
2013-09-04 11:31:00,88.7,76.0,30.04,West,259,0.0,4.0,67,0.00,,,0.00,weatherlink.com 1.10,2013-09-04 16:31:00,
2013-09-04 11:46:00,89.7,76.0,30.04,WSW,242,0.0,3.0,65,0.00,,,0.00,weatherlink.com 1.10,2013-09-04 16:46:00,
2013-09-04 12:01:00,91.1,76.0,30.04,SSW,197,0.0,4.0,62,0.00,,,0.00,weatherlink.com 1.10,2013-09-04 17:01:00,
2013-09-04 12:16:00,90.4,77.0,30.04,SSW,200,0.0,1.0,64,0.00,,,0.00,weatherlink.com 1.10,2013-09-04 17:16:00,
2013-09-04 12:31:00,91.3,76.0,30.04,South,178,0.0,1.0,62,0.00,,,0.00,weatherlink.com 1.10,2013-09-04 17:31:00,
2013-09-04 12:46:00,91.5,76.0,30.03,South,178,0.0,1.0,60,0.00,,,0.00,weatherlink.com 1.10,2013-09-04 17:46:00,
2013-09-04 13:01:00,92.9,74.0,30.02,South,178,0.0,4.0,54,0.00,,,0.00,weatherlink.com 1.10,2013-09-04 18:01:00,
2013-09-04 13:16:00,95.3,73.0,30.02,SSE,153,0.0,5.0,48,0.00,,,0.00,weatherlink.com 1.10,2013-09-04 18:16:00,
2013-09-04 13:31:00,95.5,74.0,30.01,SSE,163,1.0,5.0,50,0.00,,,0.00,weatherlink.com 1.10,2013-09-04 18:31:00,
2013-09-04 13:46:00,96.4,74.0,30.00,SSW,192,0.0,6.0,49,0.00,,,0.00,weatherlink.com 1.10,2013-09-04 18:46:00,
2013-09-04 14:01:00,97.4,74.0,29.99,SSW,200,0.0,7.0,47,0.00,,,0.00,weatherlink.com 1.10,2013-09-04 19:01:00,
2013-09-04 14:16:00,97.8,74.0,29.98,SSE,164,0.0,4.0,46,0.00,,,0.00,weatherlink.com 1.10,2013-09-04 19:16:00,
2013-09-04 14:31:00,97.3,73.0,29.98,SSW,205,0.0,4.0,45,0.00,,,0.00,weatherlink.com 1.10,2013-09-04 19:31:00,
2013-09-04 14:46:00,98.3,72.0,29.98,East,98,0.0,2.0,43,0.00,,,0.00,weatherlink.com 1.10,2013-09-04 19:46:00,
2013-09-04 15:02:00,98.7,73.0,29.97,East,83,0.0,6.0,43,0.00,,,0.00,weatherlink.com 1.10,2013-09-04 20:02:00,
2013-09-04 15:17:00,93.3,76.0,29.97,SE,144,0.0,8.0,58,0.01,,,0.01,weatherlink.com 1.10,2013-09-04 20:17:00,
2013-09-04 15:32:00,81.4,75.0,29.97,SSW,209,0.0,5.0,81,0.03,,,0.03,weatherlink.com 1.10,2013-09-04 20:32:00,
2013-09-04 15:47:00,79.5,75.0,29.97,South,180,0.0,7.0,85,0.03,,,0.03,weatherlink.com 1.10,2013-09-04 20:47:00,
2013-09-04 16:02:00,79.9,75.0,29.97,SW,216,0.0,0.0,84,0.03,,,0.03,weatherlink.com 1.10,2013-09-04 21:02:00,
2013-09-04 16:17:00,80.6,75.0,29.95,SW,216,0.0,1.0,83,0.02,,,0.03,weatherlink.com 1.10,2013-09-04 21:17:00,
2013-09-04 16:32:00,81.8,77.0,29.98,North,350,0.0,3.0,84,0.00,,,0.03,weatherlink.com 1.10,2013-09-04 21:32:00,
2013-09-04 16:47:00,82.0,75.0,29.99,South,178,0.0,6.0,78,0.00,,,0.03,weatherlink.com 1.10,2013-09-04 21:47:00,
2013-09-04 17:02:00,80.7,75.0,29.98,East,98,0.0,5.0,82,0.01,,,0.04,weatherlink.com 1.10,2013-09-04 22:02:00,
2013-09-04 17:17:00,78.3,74.0,29.98,East,93,0.0,1.0,85,0.02,,,0.05,weatherlink.com 1.10,2013-09-04 22:17:00,
2013-09-04 17:32:00,77.5,73.0,29.97,East,93,0.0,0.0,85,0.02,,,0.05,weatherlink.com 1.10,2013-09-04 22:32:00,
2013-09-04 17:47:00,77.1,72.0,29.98,NNW,345,0.0,6.0,85,0.02,,,0.05,weatherlink.com 1.10,2013-09-04 22:47:00,
2013-09-04 18:02:00,77.1,72.0,29.97,NW,309,0.0,1.0,85,0.01,,,0.05,weatherlink.com 1.10,2013-09-04 23:02:00,
2013-09-04 18:17:00,76.9,73.0,29.96,NW,309,0.0,0.0,86,0.00,,,0.05,weatherlink.com 1.10,2013-09-04 23:17:00,
2013-09-04 18:32:00,76.9,73.0,29.96,NW,309,0.0,1.0,86,0.00,,,0.05,weatherlink.com 1.10,2013-09-04 23:32:00,
2013-09-04 18:47:00,76.6,72.0,29.97,NW,309,0.0,0.0,85,0.00,,,0.05,weatherlink.com 1.10,2013-09-04 23:47:00,
2013-09-04 19:02:00,76.4,72.0,29.99,NW,309,0.0,0.0,85,0.00,,,0.05,weatherlink.com 1.10,2013-09-05 00:02:00,
2013-09-04 19:17:00,76.2,71.0,29.99,NW,309,0.0,0.0,84,0.00,,,0.05,weatherlink.com 1.10,2013-09-05 00:17:00,
2013-09-04 19:32:00,75.9,71.0,30.00,NW,308,0.0,0.0,84,0.00,,,0.05,weatherlink.com 1.10,2013-09-05 00:32:00,
2013-09-04 19:47:00,75.5,70.0,30.00,NW,309,0.0,2.0,84,0.00,,,0.05,weatherlink.com 1.10,2013-09-05 00:47:00,
2013-09-04 20:02:00,75.3,70.0,30.00,NW,309,0.0,0.0,84,0.00,,,0.05,weatherlink.com 1.10,2013-09-05 01:02:00,
2013-09-04 20:17:00,75.1,70.0,30.00,NW,309,0.0,0.0,83,0.00,,,0.05,weatherlink.com 1.10,2013-09-05 01:17:00,
2013-09-04 20:32:00,75.0,70.0,30.01,NW,309,0.0,1.0,83,0.00,,,0.05,weatherlink.com 1.10,2013-09-05 01:32:00,
2013-09-04 20:47:00,74.8,69.0,30.01,NW,309,0.0,0.0,83,0.00,,,0.05,weatherlink.com 1.10,2013-09-05 01:47:00,
2013-09-04 21:02:00,74.7,69.0,30.02,NW,309,0.0,0.0,82,0.00,,,0.05,weatherlink.com 1.10,2013-09-05 02:02:00,
2013-09-04 21:17:00,74.5,69.0,30.01,NW,309,0.0,0.0,82,0.00,,,0.05,weatherlink.com 1.10,2013-09-05 02:17:00,
2013-09-04 21:32:00,74.9,69.0,30.02,NW,309,0.0,0.0,81,0.00,,,0.05,weatherlink.com 1.10,2013-09-05 02:32:00,
2013-09-04 21:47:00,74.7,69.0,30.02,NW,309,0.0,0.0,81,0.00,,,0.05,weatherlink.com 1.10,2013-09-05 02:47:00,
2013-09-04 22:02:00,74.9,69.0,30.02,NW,309,0.0,0.0,81,0.00,,,0.05,weatherlink.com 1.10,2013-09-05 03:02:00,
2013-09-04 22:17:00,74.6,68.0,30.02,NW,309,0.0,0.0,81,0.00,,,0.05,weatherlink.com 1.10,2013-09-05 03:17:00,
2013-09-04 22:32:00,74.5,68.0,30.03,NW,309,0.0,0.0,80,0.00,,,0.05,weatherlink.com 1.10,2013-09-05 03:32:00,
2013-09-04 22:47:00,74.2,68.0,30.03,NW,309,0.0,0.0,80,0.00,,,0.05,weatherlink.com 1.10,2013-09-05 03:47:00,
2013-09-04 23:02:00,74.2,68.0,30.03,NW,309,0.0,0.0,80,0.00,,,0.05,weatherlink.com 1.10,2013-09-05 04:02:00,
2013-09-04 23:17:00,74.0,68.0,30.03,NW,309,0.0,0.0,81,0.00,,,0.05,weatherlink.com 1.10,2013-09-05 04:17:00,
2013-09-04 23:32:00,73.9,67.0,30.04,NW,309,0.0,0.0,80,0.00,,,0.05,weatherlink.com 1.10,2013-09-05 04:32:00,
2013-09-04 23:47:00,73.7,67.0,30.03,NW,309,0.0,0.0,80,0.00,,,0.05,weatherlink.com 1.10,2013-09-05 04:47:00,